sensor_id;sensor_type;location;lat;lon;timestamp;temperature;humidity
76470;DHT22;65305;52.870;13.660;2022-12-07T00:01:24;9.60;54.90
76470;DHT22;65305;52.870;13.660;2022-12-07T00:03:52;9.60;54.90
76470;DHT22;65305;52.870;13.660;2022-12-07T00:06:18;9.60;54.90
76470;DHT22;65305;52.870;13.660;2022-12-07T00:08:45;9.60;54.90
76470;DHT22;65305;52.870;13.660;2022-12-07T00:11:12;9.60;54.90
76470;DHT22;65305;52.870;13.660;2022-12-07T00:13:39;9.60;54.90
76470;DHT22;65305;52.870;13.660;2022-12-07T00:16:07;9.60;54.80
76470;DHT22;65305;52.870;13.660;2022-12-07T00:18:33;9.60;54.80
76470;DHT22;65305;52.870;13.660;2022-12-07T00:21:04;9.60;54.80
76470;DHT22;65305;52.870;13.660;2022-12-07T00:23:31;9.60;55.00
76470;DHT22;65305;52.870;13.660;2022-12-07T00:26:02;9.60;54.80
76470;DHT22;65305;52.870;13.660;2022-12-07T00:28:30;9.70;54.80
76470;DHT22;65305;52.870;13.660;2022-12-07T00:31:00;9.70;54.80
76470;DHT22;65305;52.870;13.660;2022-12-07T00:33:26;9.60;54.80
76470;DHT22;65305;52.870;13.660;2022-12-07T00:35:57;9.70;54.80
76470;DHT22;65305;52.870;13.660;2022-12-07T00:38:24;9.60;54.80
76470;DHT22;65305;52.870;13.660;2022-12-07T00:40:56;9.70;54.80
76470;DHT22;65305;52.870;13.660;2022-12-07T00:43:23;9.70;54.80
76470;DHT22;65305;52.870;13.660;2022-12-07T00:45:49;9.70;54.70
76470;DHT22;65305;52.870;13.660;2022-12-07T00:48:16;9.70;54.90
76470;DHT22;65305;52.870;13.660;2022-12-07T00:50:42;9.70;54.80
76470;DHT22;65305;52.870;13.660;2022-12-07T00:53:09;9.70;54.70
76470;DHT22;65305;52.870;13.660;2022-12-07T00:55:36;9.70;54.70
76470;DHT22;65305;52.870;13.660;2022-12-07T00:58:02;9.70;54.80
76470;DHT22;65305;52.870;13.660;2022-12-07T01:00:29;9.70;54.70
76470;DHT22;65305;52.870;13.660;2022-12-07T01:02:56;9.70;54.70
76470;DHT22;65305;52.870;13.660;2022-12-07T01:05:22;9.70;54.80
76470;DHT22;65305;52.870;13.660;2022-12-07T01:07:49;9.70;54.70
76470;DHT22;65305;52.870;13.660;2022-12-07T01:10:15;9.70;54.70
76470;DHT22;65305;52.870;13.660;2022-12-07T01:12:42;9.70;54.80
76470;DHT22;65305;52.870;13.660;2022-12-07T01:15:08;9.80;54.80
76470;DHT22;65305;52.870;13.660;2022-12-07T01:17:35;9.80;54.80
76470;DHT22;65305;52.870;13.660;2022-12-07T01:20:01;9.80;54.80
76470;DHT22;65305;52.870;13.660;2022-12-07T01:22:28;9.80;54.70
76470;DHT22;65305;52.870;13.660;2022-12-07T01:24:54;9.70;54.70
76470;DHT22;65305;52.870;13.660;2022-12-07T01:27:21;9.80;54.70
76470;DHT22;65305;52.870;13.660;2022-12-07T01:29:47;9.80;54.80
76470;DHT22;65305;52.870;13.660;2022-12-07T01:32:14;9.80;54.70
76470;DHT22;65305;52.870;13.660;2022-12-07T01:34:41;9.80;54.70
76470;DHT22;65305;52.870;13.660;2022-12-07T01:37:12;9.80;54.70
76470;DHT22;65305;52.870;13.660;2022-12-07T01:39:38;9.80;54.70
76470;DHT22;65305;52.870;13.660;2022-12-07T01:42:04;9.80;54.70
76470;DHT22;65305;52.870;13.660;2022-12-07T01:44:31;9.80;54.70
76470;DHT22;65305;52.870;13.660;2022-12-07T01:46:59;9.80;54.60
76470;DHT22;65305;52.870;13.660;2022-12-07T01:49:39;9.80;54.60
76470;DHT22;65305;52.870;13.660;2022-12-07T01:52:18;9.80;54.60
76470;DHT22;65305;52.870;13.660;2022-12-07T01:54:47;9.80;54.60
76470;DHT22;65305;52.870;13.660;2022-12-07T01:57:15;9.80;54.60
76470;DHT22;65305;52.870;13.660;2022-12-07T01:59:42;9.80;54.50
76470;DHT22;65305;52.870;13.660;2022-12-07T02:02:10;9.80;54.60
76470;DHT22;65305;52.870;13.660;2022-12-07T02:04:40;9.90;54.50
76470;DHT22;65305;52.870;13.660;2022-12-07T02:07:06;9.80;54.50
76470;DHT22;65305;52.870;13.660;2022-12-07T02:09:32;9.80;54.60
76470;DHT22;65305;52.870;13.660;2022-12-07T02:11:59;9.90;54.60
76470;DHT22;65305;52.870;13.660;2022-12-07T02:14:25;9.80;54.50
76470;DHT22;65305;52.870;13.660;2022-12-07T02:16:59;9.90;54.60
76470;DHT22;65305;52.870;13.660;2022-12-07T02:24:38;9.90;54.50
76470;DHT22;65305;52.870;13.660;2022-12-07T02:30:10;9.90;54.50
76470;DHT22;65305;52.870;13.660;2022-12-07T02:32:40;9.90;54.50
76470;DHT22;65305;52.870;13.660;2022-12-07T02:35:10;9.90;54.50
76470;DHT22;65305;52.870;13.660;2022-12-07T02:37:39;9.90;54.50
76470;DHT22;65305;52.870;13.660;2022-12-07T02:40:14;9.90;54.50
76470;DHT22;65305;52.870;13.660;2022-12-07T02:42:43;9.90;54.50
76470;DHT22;65305;52.870;13.660;2022-12-07T02:45:13;9.90;54.50
76470;DHT22;65305;52.870;13.660;2022-12-07T02:47:41;10.00;54.50
76470;DHT22;65305;52.870;13.660;2022-12-07T02:50:09;10.00;54.40
76470;DHT22;65305;52.870;13.660;2022-12-07T02:52:36;10.00;54.50
76470;DHT22;65305;52.870;13.660;2022-12-07T02:55:03;10.00;54.40
76470;DHT22;65305;52.870;13.660;2022-12-07T03:10:33;10.00;54.40
76470;DHT22;65305;52.870;13.660;2022-12-07T03:16:05;10.00;54.30
76470;DHT22;65305;52.870;13.660;2022-12-07T03:18:37;10.00;54.40
76470;DHT22;65305;52.870;13.660;2022-12-07T03:21:09;10.00;54.30
76470;DHT22;65305;52.870;13.660;2022-12-07T03:23:38;10.00;54.30
76470;DHT22;65305;52.870;13.660;2022-12-07T03:26:08;10.00;54.30
76470;DHT22;65305;52.870;13.660;2022-12-07T03:28:38;10.00;54.30
76470;DHT22;65305;52.870;13.660;2022-12-07T03:31:23;10.00;54.20
76470;DHT22;65305;52.870;13.660;2022-12-07T03:34:11;10.00;54.20
76470;DHT22;65305;52.870;13.660;2022-12-07T03:36:39;10.00;54.20
76470;DHT22;65305;52.870;13.660;2022-12-07T03:39:26;10.00;54.20
76470;DHT22;65305;52.870;13.660;2022-12-07T03:41:55;10.00;54.20
76470;DHT22;65305;52.870;13.660;2022-12-07T03:44:23;10.00;54.20
76470;DHT22;65305;52.870;13.660;2022-12-07T03:49:27;10.00;54.20
76470;DHT22;65305;52.870;13.660;2022-12-07T03:54:29;10.00;54.10
76470;DHT22;65305;52.870;13.660;2022-12-07T03:56:57;10.00;54.20
76470;DHT22;65305;52.870;13.660;2022-12-07T03:59:24;10.00;54.20
76470;DHT22;65305;52.870;13.660;2022-12-07T04:01:55;10.00;54.10
76470;DHT22;65305;52.870;13.660;2022-12-07T04:04:22;10.00;54.10
76470;DHT22;65305;52.870;13.660;2022-12-07T04:06:48;10.00;54.10
76470;DHT22;65305;52.870;13.660;2022-12-07T04:09:15;10.00;54.20
76470;DHT22;65305;52.870;13.660;2022-12-07T04:11:42;10.00;54.20
76470;DHT22;65305;52.870;13.660;2022-12-07T04:14:09;10.00;54.20
76470;DHT22;65305;52.870;13.660;2022-12-07T04:16:45;10.00;54.20
76470;DHT22;65305;52.870;13.660;2022-12-07T04:19:11;10.00;54.20
76470;DHT22;65305;52.870;13.660;2022-12-07T04:21:38;10.00;54.10
76470;DHT22;65305;52.870;13.660;2022-12-07T04:24:05;10.00;54.10
76470;DHT22;65305;52.870;13.660;2022-12-07T04:26:32;10.10;54.10
76470;DHT22;65305;52.870;13.660;2022-12-07T04:28:58;10.00;54.10
76470;DHT22;65305;52.870;13.660;2022-12-07T04:31:24;10.10;54.20
76470;DHT22;65305;52.870;13.660;2022-12-07T04:33:51;10.10;54.10
76470;DHT22;65305;52.870;13.660;2022-12-07T04:36:17;10.10;54.00
76470;DHT22;65305;52.870;13.660;2022-12-07T04:38:46;10.10;54.00
76470;DHT22;65305;52.870;13.660;2022-12-07T04:41:12;10.10;54.00
76470;DHT22;65305;52.870;13.660;2022-12-07T04:43:39;10.10;54.00
76470;DHT22;65305;52.870;13.660;2022-12-07T04:46:05;10.10;54.00
76470;DHT22;65305;52.870;13.660;2022-12-07T04:48:31;10.10;54.10
76470;DHT22;65305;52.870;13.660;2022-12-07T04:50:58;10.10;54.00
76470;DHT22;65305;52.870;13.660;2022-12-07T04:53:24;10.10;54.00
76470;DHT22;65305;52.870;13.660;2022-12-07T04:55:51;10.10;54.00
76470;DHT22;65305;52.870;13.660;2022-12-07T04:58:17;10.10;54.10
76470;DHT22;65305;52.870;13.660;2022-12-07T05:00:44;10.10;54.00
76470;DHT22;65305;52.870;13.660;2022-12-07T05:03:10;10.10;54.00
76470;DHT22;65305;52.870;13.660;2022-12-07T05:05:39;10.10;54.00
76470;DHT22;65305;52.870;13.660;2022-12-07T05:08:06;10.10;54.00
76470;DHT22;65305;52.870;13.660;2022-12-07T05:10:32;10.10;53.90
76470;DHT22;65305;52.870;13.660;2022-12-07T05:12:59;10.10;53.90
76470;DHT22;65305;52.870;13.660;2022-12-07T05:15:25;10.10;54.00
76470;DHT22;65305;52.870;13.660;2022-12-07T05:17:52;10.10;53.90
76470;DHT22;65305;52.870;13.660;2022-12-07T05:20:18;10.10;53.90
76470;DHT22;65305;52.870;13.660;2022-12-07T05:22:45;10.10;54.00
76470;DHT22;65305;52.870;13.660;2022-12-07T05:25:11;10.10;53.90
76470;DHT22;65305;52.870;13.660;2022-12-07T05:27:37;10.10;53.90
76470;DHT22;65305;52.870;13.660;2022-12-07T05:30:04;10.10;53.90
76470;DHT22;65305;52.870;13.660;2022-12-07T05:32:31;10.20;53.80
76470;DHT22;65305;52.870;13.660;2022-12-07T05:34:57;10.10;53.90
76470;DHT22;65305;52.870;13.660;2022-12-07T05:37:24;10.20;53.80
76470;DHT22;65305;52.870;13.660;2022-12-07T05:39:50;10.10;53.90
76470;DHT22;65305;52.870;13.660;2022-12-07T05:42:17;10.10;53.80
76470;DHT22;65305;52.870;13.660;2022-12-07T05:44:45;10.20;53.80
76470;DHT22;65305;52.870;13.660;2022-12-07T05:47:12;10.20;53.70
76470;DHT22;65305;52.870;13.660;2022-12-07T05:49:39;10.20;53.80
76470;DHT22;65305;52.870;13.660;2022-12-07T05:52:06;10.20;53.80
76470;DHT22;65305;52.870;13.660;2022-12-07T05:54:33;10.20;53.80
76470;DHT22;65305;52.870;13.660;2022-12-07T05:56:59;10.20;53.70
76470;DHT22;65305;52.870;13.660;2022-12-07T05:59:26;10.20;53.70
76470;DHT22;65305;52.870;13.660;2022-12-07T06:01:55;10.20;53.70
76470;DHT22;65305;52.870;13.660;2022-12-07T06:04:22;10.20;53.70
76470;DHT22;65305;52.870;13.660;2022-12-07T06:06:48;10.20;53.80
76470;DHT22;65305;52.870;13.660;2022-12-07T06:09:15;10.20;53.70
76470;DHT22;65305;52.870;13.660;2022-12-07T06:11:41;10.20;53.70
76470;DHT22;65305;52.870;13.660;2022-12-07T06:14:26;10.20;53.70
76470;DHT22;65305;52.870;13.660;2022-12-07T06:16:53;10.20;53.60
76470;DHT22;65305;52.870;13.660;2022-12-07T06:19:19;10.20;53.60
76470;DHT22;65305;52.870;13.660;2022-12-07T06:21:46;10.20;53.60
76470;DHT22;65305;52.870;13.660;2022-12-07T06:24:13;10.20;53.70
76470;DHT22;65305;52.870;13.660;2022-12-07T06:26:40;10.20;53.60
76470;DHT22;65305;52.870;13.660;2022-12-07T06:29:07;10.20;53.60
76470;DHT22;65305;52.870;13.660;2022-12-07T06:31:33;10.20;53.60
76470;DHT22;65305;52.870;13.660;2022-12-07T06:34:04;10.20;53.50
76470;DHT22;65305;52.870;13.660;2022-12-07T06:36:31;10.20;53.50
76470;DHT22;65305;52.870;13.660;2022-12-07T06:38:57;10.20;53.50
76470;DHT22;65305;52.870;13.660;2022-12-07T06:41:24;10.20;53.50
76470;DHT22;65305;52.870;13.660;2022-12-07T06:43:50;10.20;53.60
76470;DHT22;65305;52.870;13.660;2022-12-07T06:46:17;10.20;53.50
76470;DHT22;65305;52.870;13.660;2022-12-07T06:48:44;10.20;53.50
76470;DHT22;65305;52.870;13.660;2022-12-07T06:51:10;10.20;53.50
76470;DHT22;65305;52.870;13.660;2022-12-07T06:53:37;10.20;53.50
76470;DHT22;65305;52.870;13.660;2022-12-07T06:56:04;10.20;53.50
76470;DHT22;65305;52.870;13.660;2022-12-07T06:58:31;10.20;53.50
76470;DHT22;65305;52.870;13.660;2022-12-07T07:00:57;10.20;53.50
76470;DHT22;65305;52.870;13.660;2022-12-07T07:03:24;10.20;53.50
76470;DHT22;65305;52.870;13.660;2022-12-07T07:05:50;10.30;53.50
76470;DHT22;65305;52.870;13.660;2022-12-07T07:08:17;10.30;53.40
76470;DHT22;65305;52.870;13.660;2022-12-07T07:10:43;10.30;53.50
76470;DHT22;65305;52.870;13.660;2022-12-07T07:13:10;10.30;53.50
76470;DHT22;65305;52.870;13.660;2022-12-07T07:15:37;10.20;53.40
76470;DHT22;65305;52.870;13.660;2022-12-07T07:18:03;10.30;53.40
76470;DHT22;65305;52.870;13.660;2022-12-07T07:20:30;10.30;53.40
76470;DHT22;65305;52.870;13.660;2022-12-07T07:22:56;10.30;53.40
76470;DHT22;65305;52.870;13.660;2022-12-07T07:25:23;10.30;53.40
76470;DHT22;65305;52.870;13.660;2022-12-07T07:27:49;10.30;53.40
76470;DHT22;65305;52.870;13.660;2022-12-07T07:30:16;10.30;53.50
76470;DHT22;65305;52.870;13.660;2022-12-07T07:32:42;10.30;53.50
76470;DHT22;65305;52.870;13.660;2022-12-07T07:35:09;10.30;53.50
76470;DHT22;65305;52.870;13.660;2022-12-07T07:37:35;10.30;53.60
76470;DHT22;65305;52.870;13.660;2022-12-07T07:40:02;10.30;53.50
76470;DHT22;65305;52.870;13.660;2022-12-07T07:42:28;10.20;53.60
76470;DHT22;65305;52.870;13.660;2022-12-07T07:44:55;10.20;53.60
76470;DHT22;65305;52.870;13.660;2022-12-07T07:47:21;10.30;53.60
76470;DHT22;65305;52.870;13.660;2022-12-07T07:49:48;10.20;53.60
76470;DHT22;65305;52.870;13.660;2022-12-07T07:52:14;10.20;53.60
76470;DHT22;65305;52.870;13.660;2022-12-07T07:54:41;10.20;53.60
76470;DHT22;65305;52.870;13.660;2022-12-07T07:57:07;10.20;53.60
76470;DHT22;65305;52.870;13.660;2022-12-07T07:59:34;10.20;53.60
76470;DHT22;65305;52.870;13.660;2022-12-07T08:02:00;10.20;53.60
76470;DHT22;65305;52.870;13.660;2022-12-07T08:04:26;10.20;53.60
76470;DHT22;65305;52.870;13.660;2022-12-07T08:06:53;10.20;53.70
76470;DHT22;65305;52.870;13.660;2022-12-07T08:09:19;10.20;53.70
76470;DHT22;65305;52.870;13.660;2022-12-07T08:11:46;10.20;53.70
76470;DHT22;65305;52.870;13.660;2022-12-07T08:14:15;10.20;53.70
76470;DHT22;65305;52.870;13.660;2022-12-07T08:16:42;10.20;53.70
76470;DHT22;65305;52.870;13.660;2022-12-07T08:19:09;10.20;53.70
76470;DHT22;65305;52.870;13.660;2022-12-07T08:21:35;10.10;53.70
76470;DHT22;65305;52.870;13.660;2022-12-07T08:24:01;10.10;53.80
76470;DHT22;65305;52.870;13.660;2022-12-07T08:26:28;10.10;53.80
76470;DHT22;65305;52.870;13.660;2022-12-07T08:28:54;10.10;53.80
76470;DHT22;65305;52.870;13.660;2022-12-07T08:31:21;10.10;53.80
76470;DHT22;65305;52.870;13.660;2022-12-07T08:33:48;10.10;53.80
76470;DHT22;65305;52.870;13.660;2022-12-07T08:36:14;10.10;53.80
76470;DHT22;65305;52.870;13.660;2022-12-07T08:38:41;10.10;53.80
76470;DHT22;65305;52.870;13.660;2022-12-07T08:41:07;10.10;53.90
76470;DHT22;65305;52.870;13.660;2022-12-07T08:43:34;10.10;53.90
76470;DHT22;65305;52.870;13.660;2022-12-07T08:48:30;10.10;54.00
76470;DHT22;65305;52.870;13.660;2022-12-07T08:50:57;10.00;53.90
76470;DHT22;65305;52.870;13.660;2022-12-07T08:53:24;10.10;54.00
76470;DHT22;65305;52.870;13.660;2022-12-07T08:55:50;10.10;53.90
76470;DHT22;65305;52.870;13.660;2022-12-07T08:58:17;10.00;54.00
76470;DHT22;65305;52.870;13.660;2022-12-07T09:00:43;10.00;54.10
76470;DHT22;65305;52.870;13.660;2022-12-07T09:03:10;10.00;54.00
76470;DHT22;65305;52.870;13.660;2022-12-07T09:05:36;10.00;54.00
76470;DHT22;65305;52.870;13.660;2022-12-07T09:08:03;10.00;54.00
76470;DHT22;65305;52.870;13.660;2022-12-07T09:10:29;10.00;54.00
76470;DHT22;65305;52.870;13.660;2022-12-07T09:12:56;10.00;54.00
76470;DHT22;65305;52.870;13.660;2022-12-07T09:15:30;10.00;54.10
76470;DHT22;65305;52.870;13.660;2022-12-07T09:17:57;10.00;54.10
76470;DHT22;65305;52.870;13.660;2022-12-07T09:20:23;10.00;54.10
76470;DHT22;65305;52.870;13.660;2022-12-07T09:22:50;10.00;54.10
76470;DHT22;65305;52.870;13.660;2022-12-07T09:25:16;10.00;54.10
76470;DHT22;65305;52.870;13.660;2022-12-07T09:27:43;10.00;54.10
76470;DHT22;65305;52.870;13.660;2022-12-07T09:30:09;10.00;54.10
76470;DHT22;65305;52.870;13.660;2022-12-07T09:32:36;10.00;54.20
76470;DHT22;65305;52.870;13.660;2022-12-07T09:35:02;10.00;54.20
76470;DHT22;65305;52.870;13.660;2022-12-07T09:37:29;9.90;54.30
76470;DHT22;65305;52.870;13.660;2022-12-07T09:39:57;9.90;54.30
76470;DHT22;65305;52.870;13.660;2022-12-07T09:42:28;9.90;54.20
76470;DHT22;65305;52.870;13.660;2022-12-07T09:44:55;9.90;54.30
76470;DHT22;65305;52.870;13.660;2022-12-07T09:47:22;9.90;54.20
76470;DHT22;65305;52.870;13.660;2022-12-07T09:49:49;9.90;54.30
76470;DHT22;65305;52.870;13.660;2022-12-07T09:52:24;9.90;54.30
76470;DHT22;65305;52.870;13.660;2022-12-07T09:54:52;9.90;54.30
76470;DHT22;65305;52.870;13.660;2022-12-07T09:57:26;9.90;54.50
76470;DHT22;65305;52.870;13.660;2022-12-07T09:59:55;9.80;54.40
76470;DHT22;65305;52.870;13.660;2022-12-07T10:02:34;9.80;54.50
76470;DHT22;65305;52.870;13.660;2022-12-07T10:05:03;9.80;54.50
76470;DHT22;65305;52.870;13.660;2022-12-07T10:07:30;9.80;54.50
76470;DHT22;65305;52.870;13.660;2022-12-07T10:09:57;9.80;54.50
76470;DHT22;65305;52.870;13.660;2022-12-07T10:12:23;9.80;54.60
76470;DHT22;65305;52.870;13.660;2022-12-07T10:14:54;9.80;54.50
76470;DHT22;65305;52.870;13.660;2022-12-07T10:20:08;9.80;54.60
76470;DHT22;65305;52.870;13.660;2022-12-07T10:22:35;9.80;54.60
76470;DHT22;65305;52.870;13.660;2022-12-07T10:25:25;9.80;54.80
76470;DHT22;65305;52.870;13.660;2022-12-07T10:27:58;9.80;54.70
76470;DHT22;65305;52.870;13.660;2022-12-07T10:30:25;9.80;54.60
76470;DHT22;65305;52.870;13.660;2022-12-07T10:32:52;9.70;54.70
76470;DHT22;65305;52.870;13.660;2022-12-07T10:35:20;9.80;54.70
76470;DHT22;65305;52.870;13.660;2022-12-07T10:37:48;9.70;54.80
76470;DHT22;65305;52.870;13.660;2022-12-07T10:40:25;9.70;54.70
76470;DHT22;65305;52.870;13.660;2022-12-07T10:48:22;9.70;54.70
76470;DHT22;65305;52.870;13.660;2022-12-07T10:51:11;9.70;54.70
76470;DHT22;65305;52.870;13.660;2022-12-07T10:56:32;9.70;54.80
76470;DHT22;65305;52.870;13.660;2022-12-07T11:18:21;9.60;54.80
76470;DHT22;65305;52.870;13.660;2022-12-07T11:20:54;9.60;54.90
76470;DHT22;65305;52.870;13.660;2022-12-07T11:26:18;9.60;54.80
76470;DHT22;65305;52.870;13.660;2022-12-07T11:28:55;9.60;54.90
76470;DHT22;65305;52.870;13.660;2022-12-07T11:31:28;9.60;55.00
76470;DHT22;65305;52.870;13.660;2022-12-07T11:34:08;9.60;54.90
76470;DHT22;65305;52.870;13.660;2022-12-07T11:36:38;9.60;55.00
76470;DHT22;65305;52.870;13.660;2022-12-07T11:41:52;9.60;55.00
76470;DHT22;65305;52.870;13.660;2022-12-07T11:44:27;9.60;54.90
76470;DHT22;65305;52.870;13.660;2022-12-07T11:47:02;9.50;54.90
76470;DHT22;65305;52.870;13.660;2022-12-07T11:49:49;9.50;55.00
76470;DHT22;65305;52.870;13.660;2022-12-07T11:52:20;9.50;55.00
76470;DHT22;65305;52.870;13.660;2022-12-07T11:54:49;9.50;55.00
76470;DHT22;65305;52.870;13.660;2022-12-07T11:57:20;9.50;55.00
76470;DHT22;65305;52.870;13.660;2022-12-07T11:59:50;9.50;55.00
76470;DHT22;65305;52.870;13.660;2022-12-07T12:02:23;9.50;55.00
76470;DHT22;65305;52.870;13.660;2022-12-07T12:07:36;9.50;55.00
76470;DHT22;65305;52.870;13.660;2022-12-07T12:10:06;9.50;55.00
76470;DHT22;65305;52.870;13.660;2022-12-07T12:12:45;9.50;55.10
76470;DHT22;65305;52.870;13.660;2022-12-07T12:20:49;9.40;55.00
76470;DHT22;65305;52.870;13.660;2022-12-07T12:23:19;9.50;55.10
76470;DHT22;65305;52.870;13.660;2022-12-07T12:25:49;9.40;55.10
76470;DHT22;65305;52.870;13.660;2022-12-07T12:33:47;9.40;55.10
76470;DHT22;65305;52.870;13.660;2022-12-07T12:42:11;9.40;55.20
76470;DHT22;65305;52.870;13.660;2022-12-07T12:46:49;9.40;55.10
76470;DHT22;65305;52.870;13.660;2022-12-07T12:51:43;9.40;55.20
76470;DHT22;65305;52.870;13.660;2022-12-07T12:54:23;9.40;55.20
76470;DHT22;65305;52.870;13.660;2022-12-07T12:56:52;9.40;55.20
76470;DHT22;65305;52.870;13.660;2022-12-07T12:59:23;9.40;55.10
76470;DHT22;65305;52.870;13.660;2022-12-07T13:01:51;9.40;55.20
76470;DHT22;65305;52.870;13.660;2022-12-07T13:06:47;9.40;55.20
76470;DHT22;65305;52.870;13.660;2022-12-07T13:09:22;9.40;55.20
76470;DHT22;65305;52.870;13.660;2022-12-07T13:11:50;9.40;55.30
76470;DHT22;65305;52.870;13.660;2022-12-07T13:17:11;9.40;55.20
76470;DHT22;65305;52.870;13.660;2022-12-07T13:22:49;9.30;55.30
76470;DHT22;65305;52.870;13.660;2022-12-07T13:24:57;9.40;55.20
76470;DHT22;65305;52.870;13.660;2022-12-07T13:27:26;9.30;55.30
76470;DHT22;65305;52.870;13.660;2022-12-07T13:29:54;9.40;55.30
76470;DHT22;65305;52.870;13.660;2022-12-07T13:32:27;9.40;55.30
76470;DHT22;65305;52.870;13.660;2022-12-07T13:34:55;9.30;55.30
76470;DHT22;65305;52.870;13.660;2022-12-07T13:37:29;9.30;55.20
76470;DHT22;65305;52.870;13.660;2022-12-07T13:39:56;9.30;55.30
76470;DHT22;65305;52.870;13.660;2022-12-07T13:42:32;9.30;55.20
76470;DHT22;65305;52.870;13.660;2022-12-07T13:45:00;9.30;55.30
76470;DHT22;65305;52.870;13.660;2022-12-07T13:47:31;9.20;55.40
76470;DHT22;65305;52.870;13.660;2022-12-07T13:49:59;9.20;55.30
76470;DHT22;65305;52.870;13.660;2022-12-07T13:52:26;9.30;55.30
76470;DHT22;65305;52.870;13.660;2022-12-07T13:54:57;9.30;55.30
76470;DHT22;65305;52.870;13.660;2022-12-07T13:57:24;9.20;55.40
76470;DHT22;65305;52.870;13.660;2022-12-07T13:59:51;9.20;55.40
76470;DHT22;65305;52.870;13.660;2022-12-07T14:02:19;9.20;55.40
76470;DHT22;65305;52.870;13.660;2022-12-07T14:04:48;9.20;55.40
76470;DHT22;65305;52.870;13.660;2022-12-07T14:07:19;9.20;55.40
76470;DHT22;65305;52.870;13.660;2022-12-07T14:09:53;9.20;55.40
76470;DHT22;65305;52.870;13.660;2022-12-07T14:12:20;9.20;55.40
76470;DHT22;65305;52.870;13.660;2022-12-07T14:14:47;9.20;55.40
76470;DHT22;65305;52.870;13.660;2022-12-07T14:17:18;9.20;55.40
76470;DHT22;65305;52.870;13.660;2022-12-07T14:19:52;9.20;55.40
76470;DHT22;65305;52.870;13.660;2022-12-07T14:24:47;9.20;55.50
76470;DHT22;65305;52.870;13.660;2022-12-07T14:27:21;9.20;55.50
76470;DHT22;65305;52.870;13.660;2022-12-07T14:29:47;9.20;55.50
76470;DHT22;65305;52.870;13.660;2022-12-07T14:32:19;9.20;55.60
76470;DHT22;65305;52.870;13.660;2022-12-07T14:34:56;9.20;55.50
76470;DHT22;65305;52.870;13.660;2022-12-07T14:37:23;9.20;55.50
76470;DHT22;65305;52.870;13.660;2022-12-07T14:39:49;9.20;55.50
76470;DHT22;65305;52.870;13.660;2022-12-07T14:42:16;9.20;55.50
76470;DHT22;65305;52.870;13.660;2022-12-07T14:44:42;9.20;55.60
76470;DHT22;65305;52.870;13.660;2022-12-07T14:47:12;9.20;55.50
76470;DHT22;65305;52.870;13.660;2022-12-07T14:49:38;9.20;55.60
76470;DHT22;65305;52.870;13.660;2022-12-07T14:52:05;9.10;55.60
76470;DHT22;65305;52.870;13.660;2022-12-07T14:54:36;9.20;55.60
76470;DHT22;65305;52.870;13.660;2022-12-07T14:57:02;9.20;55.70
76470;DHT22;65305;52.870;13.660;2022-12-07T14:59:29;9.20;55.70
76470;DHT22;65305;52.870;13.660;2022-12-07T15:01:55;9.10;55.70
76470;DHT22;65305;52.870;13.660;2022-12-07T15:04:22;9.10;55.70
76470;DHT22;65305;52.870;13.660;2022-12-07T15:07:01;9.10;55.70
76470;DHT22;65305;52.870;13.660;2022-12-07T15:09:28;9.10;55.60
76470;DHT22;65305;52.870;13.660;2022-12-07T15:11:55;9.10;55.70
76470;DHT22;65305;52.870;13.660;2022-12-07T15:14:21;9.10;55.80
76470;DHT22;65305;52.870;13.660;2022-12-07T15:16:48;9.10;55.70
76470;DHT22;65305;52.870;13.660;2022-12-07T15:19:15;9.00;55.70
76470;DHT22;65305;52.870;13.660;2022-12-07T15:21:42;9.10;55.90
76470;DHT22;65305;52.870;13.660;2022-12-07T15:24:09;9.10;55.80
76470;DHT22;65305;52.870;13.660;2022-12-07T15:26:36;9.10;55.80
76470;DHT22;65305;52.870;13.660;2022-12-07T15:29:03;9.10;55.70
76470;DHT22;65305;52.870;13.660;2022-12-07T15:31:30;9.00;55.80
76470;DHT22;65305;52.870;13.660;2022-12-07T15:33:56;9.00;55.80
76470;DHT22;65305;52.870;13.660;2022-12-07T15:36:24;9.00;55.80
76470;DHT22;65305;52.870;13.660;2022-12-07T15:38:51;9.00;55.90
76470;DHT22;65305;52.870;13.660;2022-12-07T15:41:18;9.00;55.90
76470;DHT22;65305;52.870;13.660;2022-12-07T15:43:44;9.00;55.90
76470;DHT22;65305;52.870;13.660;2022-12-07T15:46:32;9.00;55.90
76470;DHT22;65305;52.870;13.660;2022-12-07T15:48:59;9.00;55.90
76470;DHT22;65305;52.870;13.660;2022-12-07T15:51:26;9.00;56.00
76470;DHT22;65305;52.870;13.660;2022-12-07T15:53:53;9.00;56.00
76470;DHT22;65305;52.870;13.660;2022-12-07T15:56:19;9.00;55.90
76470;DHT22;65305;52.870;13.660;2022-12-07T15:58:46;9.00;55.90
76470;DHT22;65305;52.870;13.660;2022-12-07T16:01:13;9.00;56.00
76470;DHT22;65305;52.870;13.660;2022-12-07T16:03:39;9.00;56.00
76470;DHT22;65305;52.870;13.660;2022-12-07T16:06:06;9.00;56.10
76470;DHT22;65305;52.870;13.660;2022-12-07T16:08:33;9.00;56.00
76470;DHT22;65305;52.870;13.660;2022-12-07T16:10:59;9.00;56.00
76470;DHT22;65305;52.870;13.660;2022-12-07T16:13:26;9.00;56.00
76470;DHT22;65305;52.870;13.660;2022-12-07T16:15:52;9.00;56.10
76470;DHT22;65305;52.870;13.660;2022-12-07T16:18:19;9.00;56.10
76470;DHT22;65305;52.870;13.660;2022-12-07T16:20:47;9.00;56.10
76470;DHT22;65305;52.870;13.660;2022-12-07T16:23:14;9.00;56.20
76470;DHT22;65305;52.870;13.660;2022-12-07T16:25:41;9.00;56.00
76470;DHT22;65305;52.870;13.660;2022-12-07T16:28:07;9.00;56.10
76470;DHT22;65305;52.870;13.660;2022-12-07T16:30:34;9.00;56.10
76470;DHT22;65305;52.870;13.660;2022-12-07T16:33:00;9.00;56.10
76470;DHT22;65305;52.870;13.660;2022-12-07T16:35:27;9.00;56.10
76470;DHT22;65305;52.870;13.660;2022-12-07T16:37:54;9.00;56.00
76470;DHT22;65305;52.870;13.660;2022-12-07T16:40:20;9.00;56.10
76470;DHT22;65305;52.870;13.660;2022-12-07T16:42:47;8.90;56.10
76470;DHT22;65305;52.870;13.660;2022-12-07T16:45:13;9.00;56.10
76470;DHT22;65305;52.870;13.660;2022-12-07T16:47:40;8.90;56.20
76470;DHT22;65305;52.870;13.660;2022-12-07T16:50:06;8.90;56.20
76470;DHT22;65305;52.870;13.660;2022-12-07T16:52:33;8.90;56.20
76470;DHT22;65305;52.870;13.660;2022-12-07T16:55:00;8.90;56.20
76470;DHT22;65305;52.870;13.660;2022-12-07T16:57:26;8.90;56.10
76470;DHT22;65305;52.870;13.660;2022-12-07T16:59:53;8.90;56.20
76470;DHT22;65305;52.870;13.660;2022-12-07T17:02:20;8.90;56.20
76470;DHT22;65305;52.870;13.660;2022-12-07T17:04:46;8.90;56.20
76470;DHT22;65305;52.870;13.660;2022-12-07T17:07:13;8.90;56.30
76470;DHT22;65305;52.870;13.660;2022-12-07T17:09:39;8.90;56.20
76470;DHT22;65305;52.870;13.660;2022-12-07T17:12:06;8.90;56.30
76470;DHT22;65305;52.870;13.660;2022-12-07T17:14:32;8.90;56.30